createdAt,value
2023-01-21T00:01:10.758Z,41.72
2023-01-21T00:03:38.695Z,40.72
2023-01-21T00:06:06.812Z,47.70
2023-01-21T00:08:33.849Z,39.47
2023-01-21T00:11:12.703Z,43.65
2023-01-21T00:13:40.253Z,45.50
2023-01-21T00:16:07.822Z,46.80
2023-01-21T00:18:34.918Z,42.33
2023-01-21T00:21:02.474Z,43.47
2023-01-21T00:23:29.522Z,44.28
2023-01-21T00:26:05.222Z,44.30
2023-01-21T00:28:34.798Z,41.78
2023-01-21T00:31:03.875Z,42.22
2023-01-21T00:33:31.489Z,45.10
2023-01-21T00:35:58.355Z,47.60
2023-01-21T00:38:25.214Z,42.17
2023-01-21T00:40:52.228Z,43.28
2023-01-21T00:43:19.113Z,41.67
2023-01-21T00:45:46.003Z,38.63
2023-01-21T00:48:12.814Z,38.95
2023-01-21T00:50:41.298Z,36.08
2023-01-21T00:53:08.390Z,37.22
2023-01-21T00:55:35.244Z,35.28
2023-01-21T00:58:02.320Z,38.50
2023-01-21T01:00:29.230Z,37.95
2023-01-21T01:02:56.839Z,40.80
2023-01-21T01:05:23.921Z,41.33
2023-01-21T01:07:50.818Z,42.00
2023-01-21T01:10:18.247Z,37.97
2023-01-21T01:12:45.240Z,35.17
2023-01-21T01:15:12.464Z,39.85
2023-01-21T01:17:39.543Z,34.72
2023-01-21T01:20:07.221Z,39.55
2023-01-21T01:22:34.147Z,34.10
2023-01-21T01:25:01.116Z,36.70
2023-01-21T01:27:30.782Z,36.33
2023-01-21T01:29:57.689Z,34.30
2023-01-21T01:32:24.611Z,34.22
2023-01-21T01:34:51.485Z,35.77
2023-01-21T01:37:18.329Z,34.28
2023-01-21T01:39:45.289Z,39.30
2023-01-21T01:42:17.614Z,35.35
2023-01-21T01:45:07.412Z,38.53
2023-01-21T01:47:45.875Z,34.10
2023-01-21T01:50:17.155Z,33.63
2023-01-21T01:52:45.698Z,35.75
2023-01-21T01:55:15.282Z,32.78
2023-01-21T01:57:46.969Z,35.75
2023-01-21T02:00:14.630Z,36.30
2023-01-21T02:02:43.617Z,31.35
2023-01-21T02:05:11.345Z,36.17
2023-01-21T02:07:45.640Z,30.10
2023-01-21T02:10:15.031Z,32.60
2023-01-21T02:12:44.095Z,29.93
2023-01-21T02:15:11.471Z,35.53
2023-01-21T02:18:02.509Z,32.58
2023-01-21T02:21:04.352Z,35.40
2023-01-21T02:23:45.972Z,38.33
2023-01-21T02:26:31.130Z,35.03
2023-01-21T02:29:16.751Z,29.27
2023-01-21T02:31:50.166Z,31.48
2023-01-21T02:34:32.810Z,31.08
2023-01-21T02:36:59.577Z,31.75
2023-01-21T02:39:38.273Z,32.07
2023-01-21T02:42:13.449Z,34.90
2023-01-21T02:45:01.435Z,39.97
2023-01-21T02:47:37.178Z,33.03
2023-01-21T02:50:13.260Z,33.75
2023-01-21T02:52:40.094Z,40.50
2023-01-21T02:55:14.452Z,38.55
2023-01-21T02:57:51.748Z,32.30
2023-01-21T03:00:27.570Z,36.50
2023-01-21T03:02:57.355Z,36.45
2023-01-21T03:06:19.088Z,31.80
2023-01-21T03:08:54.577Z,30.30
2023-01-21T03:11:22.446Z,36.38
2023-01-21T03:14:42.470Z,35.58
2023-01-21T03:17:23.073Z,29.95
2023-01-21T03:19:58.484Z,26.17
2023-01-21T03:22:29.671Z,32.00
2023-01-21T03:24:58.645Z,39.28
2023-01-21T03:27:28.207Z,33.80
2023-01-21T03:30:00.301Z,30.75
2023-01-21T03:32:29.025Z,29.77
2023-01-21T03:34:57.019Z,34.50
2023-01-21T03:37:39.448Z,34.30
2023-01-21T03:40:29.654Z,33.15
2023-01-21T03:42:56.741Z,31.92
2023-01-21T03:45:35.551Z,33.50
2023-01-21T03:48:26.927Z,37.75
2023-01-21T03:50:59.972Z,34.78
2023-01-21T03:53:27.357Z,31.00
2023-01-21T03:55:54.142Z,34.40
2023-01-21T03:58:21.079Z,36.33
2023-01-21T04:00:49.250Z,37.13
2023-01-21T04:03:16.140Z,33.58
2023-01-21T04:05:42.996Z,31.02
2023-01-21T04:08:09.975Z,38.20
2023-01-21T04:10:36.758Z,34.10
2023-01-21T04:13:03.559Z,35.28
2023-01-21T04:15:30.400Z,39.90
2023-01-21T04:17:57.205Z,37.88
2023-01-21T04:20:24.168Z,34.88
2023-01-21T04:22:50.976Z,38.63
2023-01-21T04:25:17.927Z,37.20
2023-01-21T04:27:44.793Z,33.58
2023-01-21T04:30:11.879Z,33.97
2023-01-21T04:32:38.817Z,30.23
2023-01-21T04:35:06.108Z,34.37
2023-01-21T04:37:33.476Z,36.47
2023-01-21T04:40:00.528Z,35.13
2023-01-21T04:42:27.440Z,39.83
2023-01-21T04:44:54.327Z,33.38
2023-01-21T04:47:21.104Z,37.73
2023-01-21T04:49:48.832Z,36.72
2023-01-21T04:52:15.843Z,34.85
2023-01-21T04:54:42.682Z,41.33
2023-01-21T04:57:10.855Z,35.67
2023-01-21T04:59:37.947Z,36.53
2023-01-21T05:02:04.846Z,37.67
2023-01-21T05:04:32.930Z,34.63
2023-01-21T05:07:00.049Z,36.33
2023-01-21T05:09:27.371Z,40.05
2023-01-21T05:11:54.307Z,40.40
2023-01-21T05:14:21.137Z,34.42
2023-01-21T05:16:48.105Z,36.20
2023-01-21T05:19:15.471Z,37.55
2023-01-21T05:21:42.647Z,36.05
2023-01-21T05:24:09.635Z,37.97
2023-01-21T05:26:36.546Z,38.92
2023-01-21T05:29:03.499Z,34.88
2023-01-21T05:31:30.413Z,39.00
2023-01-21T05:33:57.697Z,44.47
2023-01-21T05:36:24.682Z,34.03
2023-01-21T05:38:51.733Z,37.40
2023-01-21T05:41:18.898Z,37.55
2023-01-21T05:43:45.735Z,36.92
2023-01-21T05:46:12.858Z,37.13
2023-01-21T05:48:39.775Z,39.03
2023-01-21T05:51:06.799Z,36.97
2023-01-21T05:53:33.677Z,34.30
2023-01-21T05:56:00.566Z,37.97
2023-01-21T05:58:27.322Z,39.05
2023-01-21T06:00:57.998Z,40.73
2023-01-21T06:03:25.950Z,36.90
2023-01-21T06:05:52.842Z,36.30
2023-01-21T06:08:19.795Z,37.30
2023-01-21T06:10:46.887Z,38.05
2023-01-21T06:13:15.070Z,39.83
2023-01-21T06:15:42.132Z,36.55
2023-01-21T06:18:08.932Z,37.50
2023-01-21T06:20:36.653Z,37.28
2023-01-21T06:23:03.645Z,43.42
2023-01-21T06:25:31.251Z,38.60
2023-01-21T06:27:58.155Z,39.95
2023-01-21T06:30:26.067Z,40.90
2023-01-21T06:32:53.073Z,41.83
2023-01-21T06:35:20.328Z,44.42
2023-01-21T06:37:47.438Z,38.57
2023-01-21T06:40:15.663Z,42.92
2023-01-21T06:42:46.613Z,37.13
2023-01-21T06:45:13.983Z,40.92
2023-01-21T06:47:45.335Z,36.63
2023-01-21T06:50:14.340Z,36.13
2023-01-21T06:52:46.483Z,38.67
2023-01-21T06:55:13.809Z,38.00
2023-01-21T06:57:40.737Z,35.55
2023-01-21T07:00:09.087Z,37.35
2023-01-21T07:02:36.078Z,39.50
2023-01-21T07:05:04.077Z,42.22
2023-01-21T07:07:31.390Z,44.03
2023-01-21T07:09:58.766Z,39.53
2023-01-21T07:12:25.611Z,40.05
2023-01-21T07:14:52.653Z,38.63
2023-01-21T07:17:20.183Z,39.40
2023-01-21T07:19:47.290Z,39.60
2023-01-21T07:22:14.169Z,38.50
2023-01-21T07:24:41.053Z,41.58
2023-01-21T07:27:08.064Z,39.93
2023-01-21T07:29:35.007Z,46.53
2023-01-21T07:32:01.849Z,37.67
2023-01-21T07:34:28.653Z,42.20
2023-01-21T07:36:55.482Z,43.65
2023-01-21T07:39:22.496Z,46.60
2023-01-21T07:41:49.603Z,46.55
2023-01-21T07:44:17.922Z,46.30
2023-01-21T07:46:44.925Z,45.58
2023-01-21T07:49:17.216Z,45.20
2023-01-21T07:51:45.663Z,66.27
2023-01-21T07:54:13.149Z,45.28
2023-01-21T07:56:40.675Z,50.88
2023-01-21T07:59:07.530Z,67.85
2023-01-21T08:01:34.423Z,69.55
2023-01-21T08:04:01.682Z,113.17
2023-01-21T08:06:28.530Z,67.22
2023-01-21T08:08:55.769Z,62.53
2023-01-21T08:11:22.556Z,78.07
2023-01-21T08:13:50.469Z,47.38
2023-01-21T08:16:17.557Z,57.77
2023-01-21T08:18:44.653Z,71.80
2023-01-21T08:21:11.939Z,78.80
2023-01-21T08:23:38.878Z,142.57
2023-01-21T08:26:06.765Z,143.25
2023-01-21T08:28:34.427Z,114.17
2023-01-21T08:31:07.140Z,84.55
2023-01-21T08:33:34.163Z,84.15
2023-01-21T08:36:06.231Z,105.15
2023-01-21T08:38:34.238Z,67.00
2023-01-21T08:41:01.576Z,89.93
2023-01-21T08:43:28.587Z,89.45
2023-01-21T08:45:57.155Z,99.40
2023-01-21T08:48:24.245Z,54.78
2023-01-21T08:50:51.215Z,54.05
2023-01-21T08:53:18.118Z,52.83
2023-01-21T08:55:45.196Z,60.70
2023-01-21T08:58:12.210Z,53.13
2023-01-21T09:00:39.603Z,53.83
2023-01-21T09:03:06.557Z,61.00
2023-01-21T09:05:33.541Z,51.10
2023-01-21T09:08:00.614Z,55.22
2023-01-21T09:10:46.004Z,62.03
2023-01-21T09:13:13.197Z,55.47
2023-01-21T09:15:41.465Z,51.17
2023-01-21T09:18:08.870Z,52.00
2023-01-21T09:20:36.482Z,57.50
2023-01-21T09:23:23.739Z,45.55
2023-01-21T09:25:56.142Z,50.13
2023-01-21T09:28:23.603Z,52.20
2023-01-21T09:30:55.426Z,53.27
2023-01-21T09:33:22.320Z,55.60
2023-01-21T09:36:01.085Z,53.10
2023-01-21T09:38:29.387Z,55.33
2023-01-21T09:41:19.635Z,57.05
2023-01-21T09:44:12.198Z,52.17
2023-01-21T09:46:57.775Z,54.17
2023-01-21T09:49:29.843Z,55.90
2023-01-21T09:52:08.892Z,52.55
2023-01-21T09:54:38.047Z,55.28
2023-01-21T09:57:20.058Z,57.77
2023-01-21T09:59:55.028Z,60.75
2023-01-21T10:02:40.530Z,56.55
2023-01-21T10:05:13.203Z,64.65
2023-01-21T10:08:10.481Z,54.75
2023-01-21T10:10:43.507Z,53.63
2023-01-21T10:14:07.853Z,42.13
2023-01-21T10:16:54.301Z,51.80
2023-01-21T10:19:30.395Z,54.58
2023-01-21T10:22:03.893Z,50.45
2023-01-21T10:24:40.829Z,49.70
2023-01-21T10:27:15.094Z,56.15
2023-01-21T10:29:42.671Z,45.47
2023-01-21T10:32:15.347Z,54.13
2023-01-21T10:34:51.339Z,51.63
2023-01-21T10:37:41.699Z,53.73
2023-01-21T10:40:42.838Z,54.17
2023-01-21T10:43:33.157Z,48.38
2023-01-21T10:46:10.425Z,54.10
2023-01-21T10:48:58.050Z,52.95
2023-01-21T10:51:45.858Z,49.73
2023-01-21T10:54:18.380Z,52.67
2023-01-21T10:56:57.082Z,50.42
2023-01-21T10:59:28.759Z,44.53
2023-01-21T11:02:10.216Z,46.75
2023-01-21T11:04:40.786Z,41.03
2023-01-21T11:07:14.499Z,47.50
2023-01-21T11:09:45.050Z,46.20
2023-01-21T11:12:20.181Z,48.10
2023-01-21T11:14:57.394Z,47.45
2023-01-21T11:17:37.092Z,49.00
2023-01-21T11:20:29.564Z,50.08
2023-01-21T11:22:56.910Z,42.75
2023-01-21T11:25:38.972Z,43.83
2023-01-21T11:28:06.031Z,47.08
2023-01-21T11:30:55.215Z,48.43
2023-01-21T11:33:27.057Z,49.10
2023-01-21T11:35:55.220Z,45.75
2023-01-21T11:38:29.569Z,44.30
2023-01-21T11:41:05.411Z,44.85
2023-01-21T11:43:35.048Z,45.53
2023-01-21T11:46:40.077Z,49.45
2023-01-21T11:49:07.048Z,45.55
2023-01-21T11:51:39.729Z,41.92
2023-01-21T11:54:19.914Z,43.03
2023-01-21T11:56:54.583Z,46.47
2023-01-21T11:59:24.505Z,48.03
2023-01-21T12:01:56.933Z,50.10
2023-01-21T12:04:25.750Z,51.42
2023-01-21T12:06:58.107Z,46.80
2023-01-21T12:09:25.662Z,43.93
2023-01-21T12:12:14.010Z,54.03
2023-01-21T12:15:08.384Z,46.42
2023-01-21T12:18:08.532Z,47.85
2023-01-21T12:21:05.648Z,45.13
2023-01-21T12:23:49.504Z,46.47
2023-01-21T12:26:45.656Z,39.17
2023-01-21T12:29:38.896Z,42.50
2023-01-21T12:32:28.792Z,39.13
2023-01-21T12:35:14.048Z,45.83
2023-01-21T12:37:47.018Z,44.03
2023-01-21T12:40:20.209Z,43.05
2023-01-21T12:42:53.987Z,45.25
2023-01-21T12:45:28.812Z,44.30
2023-01-21T12:48:01.626Z,45.70
2023-01-21T12:50:39.543Z,41.63
2023-01-21T12:53:09.508Z,44.83
2023-01-21T12:56:08.178Z,37.97
2023-01-21T12:58:51.372Z,35.00
2023-01-21T13:01:39.658Z,40.10
2023-01-21T13:04:29.081Z,36.77
2023-01-21T13:07:12.593Z,36.55
2023-01-21T13:09:56.301Z,37.50
2023-01-21T13:12:27.463Z,47.00
2023-01-21T13:15:20.847Z,49.00
2023-01-21T13:17:59.991Z,41.03
2023-01-21T13:20:29.092Z,40.70
2023-01-21T13:23:16.614Z,43.60
2023-01-21T13:25:48.928Z,41.33
2023-01-21T13:28:27.888Z,42.45
2023-01-21T13:31:22.983Z,48.27
2023-01-21T13:34:13.172Z,38.00
2023-01-21T13:37:18.383Z,40.30
2023-01-21T13:40:14.886Z,35.78
2023-01-21T13:42:41.876Z,40.03
2023-01-21T13:45:21.651Z,44.30
2023-01-21T13:48:16.124Z,40.10
2023-01-21T13:51:07.613Z,41.83
2023-01-21T13:53:54.492Z,40.58
2023-01-21T13:56:27.278Z,38.15
2023-01-21T13:59:01.832Z,40.83
2023-01-21T14:01:47.309Z,39.33
2023-01-21T14:04:55.505Z,32.60
2023-01-21T14:07:31.645Z,35.83
2023-01-21T14:10:20.181Z,38.40
2023-01-21T14:13:13.547Z,37.03
2023-01-21T14:16:02.618Z,39.28
2023-01-21T14:18:49.911Z,37.65
2023-01-21T14:21:41.539Z,35.20
2023-01-21T14:24:36.220Z,34.58
2023-01-21T14:27:39.716Z,38.63
2023-01-21T14:30:19.206Z,33.53
2023-01-21T14:32:51.502Z,39.13
2023-01-21T14:35:21.362Z,35.05
2023-01-21T14:37:55.799Z,35.75
2023-01-21T14:40:31.856Z,32.83
2023-01-21T14:42:59.374Z,35.05
2023-01-21T14:45:55.490Z,35.55
2023-01-21T14:48:42.045Z,35.17
2023-01-21T14:51:20.272Z,35.22
2023-01-21T14:53:50.011Z,33.47
2023-01-21T14:56:19.351Z,35.58
2023-01-21T14:58:49.026Z,36.72
2023-01-21T15:01:38.862Z,32.90
2023-01-21T15:04:19.196Z,34.28
2023-01-21T15:06:46.906Z,36.47
2023-01-21T15:09:24.744Z,38.28
2023-01-21T15:11:56.461Z,37.53
2023-01-21T15:14:28.502Z,38.30
2023-01-21T15:16:55.424Z,39.13
2023-01-21T15:19:27.352Z,31.50
2023-01-21T15:22:00.205Z,38.55
2023-01-21T15:24:30.623Z,44.90
2023-01-21T15:27:23.821Z,42.05
2023-01-21T15:30:02.547Z,39.45
2023-01-21T15:32:32.022Z,29.93
2023-01-21T15:35:35.292Z,39.83
2023-01-21T15:38:14.807Z,35.67
2023-01-21T15:40:52.540Z,32.22
2023-01-21T15:43:54.891Z,34.17
2023-01-21T15:46:39.033Z,27.47
2023-01-21T15:49:27.258Z,30.65
2023-01-21T15:52:06.174Z,31.63
2023-01-21T15:54:51.023Z,30.20
2023-01-21T15:57:24.050Z,29.92
2023-01-21T15:59:50.818Z,31.20
2023-01-21T16:02:24.790Z,34.15
2023-01-21T16:05:22.888Z,30.75
2023-01-21T16:08:04.049Z,29.80
2023-01-21T16:10:33.840Z,32.13
2023-01-21T16:13:21.367Z,25.53
2023-01-21T16:16:29.506Z,29.65
2023-01-21T16:19:04.301Z,29.05
2023-01-21T16:21:35.094Z,28.70
2023-01-21T16:24:10.561Z,31.92
2023-01-21T16:26:37.570Z,28.33
2023-01-21T16:29:11.327Z,27.50
2023-01-21T16:31:46.195Z,29.85
2023-01-21T16:34:13.865Z,34.05
2023-01-21T16:36:40.850Z,31.95
2023-01-21T16:39:10.730Z,29.73
2023-01-21T16:41:39.907Z,29.38
2023-01-21T16:44:15.540Z,30.40
2023-01-21T16:46:44.012Z,27.67
2023-01-21T16:49:16.073Z,24.15
2023-01-21T16:51:54.415Z,27.40
2023-01-21T16:54:31.301Z,27.48
2023-01-21T16:57:22.909Z,31.58
2023-01-21T16:59:50.118Z,31.42
2023-01-21T17:02:23.776Z,28.17
2023-01-21T17:04:50.777Z,31.63
2023-01-21T17:07:22.941Z,32.90
2023-01-21T17:10:01.861Z,31.15
2023-01-21T17:12:30.780Z,30.10
2023-01-21T17:15:02.595Z,29.05
2023-01-21T17:17:34.295Z,31.03
2023-01-21T17:20:01.650Z,28.52
2023-01-21T17:22:33.302Z,29.00
2023-01-21T17:25:00.229Z,28.92
2023-01-21T17:27:28.104Z,31.08
2023-01-21T17:30:31.814Z,28.73
2023-01-21T17:33:02.800Z,33.08
2023-01-21T17:35:32.006Z,32.60
2023-01-21T17:38:01.162Z,31.50
2023-01-21T17:40:41.991Z,35.13
2023-01-21T17:43:24.030Z,35.30
2023-01-21T17:45:53.208Z,43.92
2023-01-21T17:48:27.665Z,38.88
2023-01-21T17:50:55.271Z,35.75
2023-01-21T17:53:27.454Z,43.30
2023-01-21T17:56:06.937Z,34.33
2023-01-21T17:58:35.384Z,37.70
2023-01-21T18:01:04.013Z,39.97
2023-01-21T18:03:30.842Z,43.88
2023-01-21T18:05:57.997Z,35.70
2023-01-21T18:08:25.240Z,38.70
2023-01-21T18:10:52.175Z,34.25
2023-01-21T18:13:21.652Z,37.58
2023-01-21T18:15:51.818Z,41.03
2023-01-21T18:18:25.973Z,41.03
2023-01-21T18:20:53.616Z,39.17
2023-01-21T18:23:20.624Z,37.72
2023-01-21T18:25:50.904Z,41.92
2023-01-21T18:28:26.377Z,38.42
2023-01-21T18:30:57.935Z,37.72
2023-01-21T18:33:25.627Z,33.77
2023-01-21T18:35:52.965Z,36.63
2023-01-21T18:38:32.090Z,38.08
2023-01-21T18:41:00.370Z,40.20
2023-01-21T18:43:27.657Z,35.05
2023-01-21T18:45:54.927Z,39.40
2023-01-21T18:48:28.487Z,41.10
2023-01-21T18:50:59.502Z,42.25
2023-01-21T18:53:26.968Z,41.17
2023-01-21T18:55:54.329Z,36.88
2023-01-21T18:58:21.591Z,37.40
2023-01-21T19:00:48.987Z,36.83
2023-01-21T19:03:16.814Z,34.80
2023-01-21T19:05:47.776Z,36.58
2023-01-21T19:08:26.706Z,33.92
2023-01-21T19:10:54.620Z,31.30
2023-01-21T19:13:21.711Z,36.35
2023-01-21T19:15:50.131Z,33.75
2023-01-21T19:18:17.599Z,37.45
2023-01-21T19:20:48.862Z,31.55
2023-01-21T19:23:18.568Z,33.33
2023-01-21T19:25:51.449Z,31.30
2023-01-21T19:28:18.712Z,34.63
2023-01-21T19:30:49.337Z,26.80
2023-01-21T19:33:16.372Z,33.08
2023-01-21T19:35:45.401Z,36.70
2023-01-21T19:38:15.674Z,31.20
2023-01-21T19:40:43.090Z,32.28
2023-01-21T19:43:13.558Z,36.80
2023-01-21T19:45:41.816Z,36.15
2023-01-21T19:48:12.946Z,39.90
2023-01-21T19:50:40.485Z,39.30
2023-01-21T19:53:09.445Z,36.80
2023-01-21T19:55:37.183Z,36.25
2023-01-21T19:58:13.725Z,41.58
2023-01-21T20:00:41.305Z,38.67
2023-01-21T20:03:11.975Z,34.40
2023-01-21T20:05:39.381Z,35.05
2023-01-21T20:08:06.678Z,38.83
2023-01-21T20:10:33.600Z,37.47
2023-01-21T20:13:00.649Z,36.83
2023-01-21T20:15:30.559Z,33.60
2023-01-21T20:18:00.153Z,40.58
2023-01-21T20:20:32.262Z,43.05
2023-01-21T20:23:02.270Z,40.17
2023-01-21T20:25:37.322Z,40.80
2023-01-21T20:28:16.177Z,41.20
2023-01-21T20:30:43.248Z,46.50
2023-01-21T20:33:17.097Z,44.70
2023-01-21T20:35:48.186Z,60.45
2023-01-21T20:38:19.092Z,52.07
2023-01-21T20:40:46.071Z,55.92
2023-01-21T20:43:12.870Z,50.35
2023-01-21T20:45:45.496Z,41.15
2023-01-21T20:48:25.321Z,48.38
2023-01-21T20:50:53.002Z,43.53
2023-01-21T20:53:20.156Z,50.58
2023-01-21T20:55:50.141Z,46.17
2023-01-21T20:58:19.406Z,50.20
2023-01-21T21:00:47.124Z,42.13
2023-01-21T21:03:17.050Z,48.90
2023-01-21T21:05:48.561Z,47.88
2023-01-21T21:08:18.801Z,42.65
2023-01-21T21:10:47.101Z,44.28
2023-01-21T21:13:14.495Z,48.25
2023-01-21T21:15:42.810Z,44.40
2023-01-21T21:18:14.784Z,53.08
2023-01-21T21:20:42.193Z,47.00
2023-01-21T21:23:13.909Z,48.90
2023-01-21T21:25:49.061Z,48.25
2023-01-21T21:28:18.419Z,100.20
2023-01-21T21:30:45.405Z,65.70
2023-01-21T21:33:18.057Z,46.85
2023-01-21T21:35:46.759Z,51.75
2023-01-21T21:38:22.593Z,70.82
2023-01-21T21:40:53.267Z,44.80
2023-01-21T21:43:35.838Z,43.78
2023-01-21T21:46:28.995Z,63.30
2023-01-21T21:48:56.253Z,69.65
2023-01-21T21:51:23.589Z,47.15
2023-01-21T21:53:51.446Z,47.97
2023-01-21T21:56:20.756Z,42.50
2023-01-21T21:58:48.453Z,72.55
2023-01-21T22:01:24.377Z,50.60
2023-01-21T22:03:51.820Z,48.10
2023-01-21T22:06:20.738Z,44.97
2023-01-21T22:08:48.689Z,49.38
2023-01-21T22:11:18.537Z,30.67
2023-01-21T22:13:50.246Z,56.95
2023-01-21T22:16:25.930Z,51.58
2023-01-21T22:18:53.548Z,75.10
2023-01-21T22:21:23.020Z,42.10
2023-01-21T22:23:50.524Z,46.50
2023-01-21T22:26:21.390Z,85.15
2023-01-21T22:28:51.253Z,42.42
2023-01-21T22:31:21.810Z,55.00
2023-01-21T22:33:49.222Z,50.25
2023-01-21T22:36:18.726Z,50.33
2023-01-21T22:38:46.390Z,34.13
2023-01-21T22:41:15.675Z,48.85
2023-01-21T22:43:48.512Z,32.47
2023-01-21T22:46:19.038Z,54.88
2023-01-21T22:48:46.762Z,50.97
2023-01-21T22:51:15.792Z,50.42
2023-01-21T22:53:46.008Z,44.03
2023-01-21T22:56:15.400Z,65.70
2023-01-21T22:58:42.515Z,54.55
2023-01-21T23:01:20.323Z,88.95
2023-01-21T23:03:47.190Z,43.58
2023-01-21T23:06:14.065Z,59.95
2023-01-21T23:08:41.098Z,38.20
2023-01-21T23:11:08.978Z,29.30
2023-01-21T23:13:36.079Z,31.40
2023-01-21T23:16:06.849Z,59.80
2023-01-21T23:18:36.247Z,46.58
2023-01-21T23:21:09.737Z,43.67
2023-01-21T23:23:38.070Z,59.20
2023-01-21T23:26:07.386Z,56.72
2023-01-21T23:28:35.887Z,41.60
2023-01-21T23:31:08.223Z,61.97
2023-01-21T23:33:35.440Z,102.13
2023-01-21T23:36:02.797Z,73.80
2023-01-21T23:38:30.154Z,88.95
2023-01-21T23:40:57.737Z,66.18
2023-01-21T23:43:28.578Z,74.85
2023-01-21T23:45:55.662Z,92.67
2023-01-21T23:48:23.056Z,67.97
2023-01-21T23:50:50.464Z,52.35
2023-01-21T23:53:17.752Z,39.53
2023-01-21T23:55:44.872Z,46.65
2023-01-21T23:58:11.738Z,58.87
